Airfield :







YOU CAN JOIN US ON...

 
LOGIN :

Register | Disclaimer

   EN    FR    IT 

 









Legend :    VFR   Marginal VFR   IFR   Intensive IFR   Very Intensive IFR
Visi :
Ceiling :
>= 8 km
>= 3000ft
5 to 8 km
1000 to 3000 ft
1500m to 5 km
500 to 1000 ft
800 to 1500m
200 to 500 ft
< 800m
< 200 ft
Symbols :   Thunderstorms  Fog  Heavy snow  Heavy precipitations  Wind > 20 kt






- Airport Elevation : 215 ft
- IATA code : MSS


KMSS - Massena International Richards Field

CURRENT METAR :
  • 240753Z AUTO 20005KT 10SM OVC041 16/15 A2991 RMK AO2 RAE27 SLP129 P0001 T01560150 $

EXPIRED METARs :
  • 240653Z AUTO 15003KT 9SM -RA BKN038 BKN055 OVC110 16/16 A2991 RMK AO2 SLP128 P0002 T01610156 $
  • 240553Z AUTO 19003KT 7SM -RA FEW024 BKN048 OVC070 16/15 A2990 RMK AO2 SLP122 P0007 60041 T01610150 10217 20161 55000 $

TAF KMSS
Valid from the 24 at 07:00 until the 25 at 06:00 UTC


240710Z 2407/2506 21008KT 6SM -SHRA BR FEW007 OVC035
FM240800 22007KT P6SM VCSH OVC035
FM241600 22011G17KT P6SM FEW035
FM250000 22006KT P6SM SCT060
KZBW FIR / North America



MET'MAP, your aeronautical weather chart ! - Copyright ORBIFLY December 2007 - Disclaimer

ORBIFLY MET'MAP TEAM :

Programming & Development : Alexandra Zaïnal
Concept & original design : Baudouin d'Aumeries
Assistance for programming : Marc-Olivier Méhu
Technical & hardware support : Manuel Goepfert

Contact : metmap@orbifly.com




SOURCES & CREDITS :

   NOAA